Back to Top

Language: 

My Weather Underground Personal Weather Station Historical Data with Graphs...

Delerius Weather Station Historical Data
Daily Summary for May 28, 2017 Units:  Metric    English   Both
« Previous Day
Next Day »
Daily Weekly Monthly Yearly Custom
  High: Low: Average:
Temperature: 20.9 °C 14.3 °C 17.1 °C
Dew Point: 13.7 °C 12.3 °C 12.9 °C
Humidity: 88 % 61 % 77 %
Wind Speed: 25.7 km/h 0 km/h 11.6 km/h
Wind Gust: 43.5 km/h - -
Wind:- - West
Pressure: 1017.5 hPa 1012.1 hPa -
Precipitation: 0 mm    
Historical Graphs
 
 
Tabular Data for May 28, 2017
Time Temperature Dew Point Pressure Wind Wind Speed Wind Gust Humidity Rainfall Rate (Hourly) solar Conditions
00:03 15.5 °C 13 °C 1012.1 hPa SW 19.3 km/h 37 km/h 85 % 0 mm 0 W/m2
00:08 15.5 °C 13 °C 1012.1 hPa WSW 19.3 km/h 33.8 km/h 85 % 0 mm 0 W/m2
00:13 15.5 °C 13 °C 1012.1 hPa WSW 19.3 km/h 38.6 km/h 85 % 0 mm 0 W/m2
00:18 15.5 °C 13 °C 1012.1 hPa WSW 19.3 km/h 38.6 km/h 85 % 0 mm 0 W/m2
00:23 15.5 °C 13 °C 1012.4 hPa WSW 19.3 km/h 32.2 km/h 85 % 0 mm 0 W/m2
00:28 15.6 °C 12.9 °C 1012.4 hPa SW 17.7 km/h 35.4 km/h 84 % 0 mm 0 W/m2
00:33 15.6 °C 12.9 °C 1012.4 hPa SW 17.7 km/h 35.4 km/h 84 % 0 mm 0 W/m2
00:38 15.6 °C 12.9 °C 1012.4 hPa WSW 14.5 km/h 25.7 km/h 84 % 0 mm 0 W/m2
00:43 15.6 °C 12.9 °C 1012.4 hPa WSW 16.1 km/h 32.2 km/h 84 % 0 mm 0 W/m2
00:48 15.6 °C 12.9 °C 1012.8 hPa WSW 16.1 km/h 32.2 km/h 84 % 0 mm 0 W/m2
00:53 15.6 °C 12.9 °C 1012.4 hPa WSW 12.9 km/h 29 km/h 84 % 0 mm 0 W/m2
00:58 15.6 °C 12.9 °C 1012.8 hPa WSW 12.9 km/h 25.7 km/h 84 % 0 mm 0 W/m2
01:03 15.6 °C 12.9 °C 1012.8 hPa WSW 12.9 km/h 30.6 km/h 84 % 0 mm 0 W/m2
01:08 15.5 °C 12.8 °C 1012.8 hPa WSW 11.3 km/h 30.6 km/h 84 % 0 mm 0 W/m2
01:13 15.5 °C 12.8 °C 1013.1 hPa WSW 9.7 km/h 17.7 km/h 84 % 0 mm 0 W/m2
01:19 15.5 °C 12.8 °C 1013.1 hPa WSW 9.7 km/h 17.7 km/h 84 % 0 mm 0 W/m2
01:24 15.5 °C 12.8 °C 1013.1 hPa West 6.4 km/h 17.7 km/h 84 % 0 mm 0 W/m2
01:29 15.5 °C 12.8 °C 1013.1 hPa West 3.2 km/h 9.7 km/h 84 % 0 mm 0 W/m2
01:34 15.6 °C 12.9 °C 1013.1 hPa SSW 3.2 km/h 17.7 km/h 84 % 0 mm 0 W/m2
01:39 15.6 °C 12.9 °C 1013.4 hPa SW 8 km/h 22.5 km/h 84 % 0 mm 0 W/m2
01:44 15.6 °C 12.9 °C 1013.4 hPa WSW 8 km/h 22.5 km/h 84 % 0 mm 0 W/m2
01:49 15.6 °C 12.9 °C 1013.4 hPa WSW 11.3 km/h 22.5 km/h 84 % 0 mm 0 W/m2
01:54 15.6 °C 12.9 °C 1013.4 hPa WSW 12.9 km/h 22.5 km/h 84 % 0 mm 0 W/m2
01:59 15.6 °C 13.1 °C 1013.4 hPa WSW 12.9 km/h 24.1 km/h 85 % 0 mm 0 W/m2
02:04 15.6 °C 13.1 °C 1013.4 hPa WSW 11.3 km/h 24.1 km/h 85 % 0 mm 0 W/m2
02:05 15.6 °C 13.1 °C 1013.4 hPa WSW 11.3 km/h 24.1 km/h 85 % 0 mm 0 W/m2
02:10 15.6 °C 13.1 °C 1013.4 hPa WSW 8 km/h 16.1 km/h 85 % 0 mm 0 W/m2
02:16 15.6 °C 13.1 °C 1013.8 hPa WSW 6.4 km/h 16.1 km/h 85 % 0 mm 0 W/m2
02:20 15.6 °C 13.1 °C 1013.8 hPa WSW 6.4 km/h 20.9 km/h 85 % 0 mm 0 W/m2
02:26 15.5 °C 13.2 °C 1013.8 hPa West 9.7 km/h 35.4 km/h 86 % 0 mm 0 W/m2
02:31 15.4 °C 13.1 °C 1013.8 hPa West 11.3 km/h 35.4 km/h 86 % 0 mm 0 W/m2
02:36 15.4 °C 13.1 °C 1013.8 hPa West 9.7 km/h 24.1 km/h 86 % 0 mm 0 W/m2
02:41 15.4 °C 13.1 °C 1013.8 hPa WSW 8 km/h 24.1 km/h 86 % 0 mm 0 W/m2
02:46 15.4 °C 13.1 °C 1013.8 hPa West 11.3 km/h 22.5 km/h 86 % 0 mm 0 W/m2
02:51 15.3 °C 12.9 °C 1013.8 hPa West 11.3 km/h 22.5 km/h 86 % 0 mm 0 W/m2
02:56 15.3 °C 12.9 °C 1013.8 hPa West 12.9 km/h 29 km/h 86 % 0 mm 0 W/m2
03:01 15.2 °C 13.1 °C 1013.8 hPa West 16.1 km/h 32.2 km/h 87 % 0 mm 0 W/m2
03:06 15.2 °C 13.1 °C 1013.8 hPa WNW 12.9 km/h 32.2 km/h 87 % 0 mm 0 W/m2
03:11 15.2 °C 13.1 °C 1013.8 hPa WNW 9.7 km/h 19.3 km/h 87 % 0 mm 0 W/m2
03:16 15.1 °C 12.9 °C 1014.1 hPa WNW 8 km/h 16.1 km/h 87 % 0 mm 0 W/m2
03:21 15.1 °C 12.9 °C 1014.1 hPa West 14.5 km/h 32.2 km/h 87 % 0 mm 0 W/m2
03:26 15.1 °C 12.8 °C 1014.1 hPa West 19.3 km/h 35.4 km/h 86 % 0 mm 0 W/m2
03:31 15.1 °C 12.8 °C 1014.1 hPa West 19.3 km/h 35.4 km/h 86 % 0 mm 0 W/m2
03:36 15.1 °C 12.8 °C 1014.1 hPa West 17.7 km/h 33.8 km/h 86 % 0 mm 0 W/m2
03:41 15.1 °C 12.8 °C 1014.1 hPa WSW 19.3 km/h 32.2 km/h 86 % 0 mm 0 W/m2
03:46 15.1 °C 12.8 °C 1014.1 hPa WSW 17.7 km/h 32.2 km/h 86 % 0 mm 0 W/m2
03:51 15.1 °C 12.8 °C 1014.1 hPa WSW 14.5 km/h 24.1 km/h 86 % 0 mm 0 W/m2
03:56 15.1 °C 12.8 °C 1014.1 hPa West 16.1 km/h 32.2 km/h 86 % 0 mm 0 W/m2
04:01 15 °C 12.7 °C 1014.1 hPa West 17.7 km/h 32.2 km/h 86 % 0 mm 0 W/m2
04:06 15 °C 12.7 °C 1014.1 hPa West 17.7 km/h 32.2 km/h 86 % 0 mm 0 W/m2
04:11 14.9 °C 12.6 °C 1014.1 hPa West 17.7 km/h 32.2 km/h 86 % 0 mm 0 W/m2
04:16 14.9 °C 12.6 °C 1014.1 hPa West 19.3 km/h 32.2 km/h 86 % 0 mm 0 W/m2
04:21 14.8 °C 12.3 °C 1014.1 hPa West 20.9 km/h 37 km/h 85 % 0 mm 0 W/m2
04:26 14.8 °C 12.3 °C 1014.1 hPa WSW 20.9 km/h 37 km/h 85 % 0 mm 0 W/m2
04:31 14.8 °C 12.5 °C 1014.1 hPa West 19.3 km/h 37 km/h 86 % 0 mm 0 W/m2
04:36 14.8 °C 12.3 °C 1014.1 hPa West 22.5 km/h 37 km/h 85 % 0 mm 0 W/m2
04:41 14.8 °C 12.3 °C 1014.1 hPa West 24.1 km/h 37 km/h 85 % 0 mm 0 W/m2
04:46 14.7 °C 12.4 °C 1013.8 hPa West 25.7 km/h 41.8 km/h 86 % 0 mm 0 W/m2
04:51 14.6 °C 12.3 °C 1013.8 hPa West 25.7 km/h 43.5 km/h 86 % 0 mm 5 W/m2
04:56 14.6 °C 12.3 °C 1014.1 hPa West 25.7 km/h 43.5 km/h 86 % 0 mm 5 W/m2
05:01 14.6 °C 12.4 °C 1014.1 hPa West 24.1 km/h 40.2 km/h 87 % 0 mm 7 W/m2
05:06 14.5 °C 12.3 °C 1014.1 hPa West 20.9 km/h 38.6 km/h 87 % 0 mm 7 W/m2
05:11 14.4 °C 12.4 °C 1014.4 hPa West 20.9 km/h 33.8 km/h 88 % 0 mm 7 W/m2
05:16 14.4 °C 12.4 °C 1014.4 hPa West 20.9 km/h 37 km/h 88 % 0 mm 9 W/m2
05:22 14.4 °C 12.4 °C 1014.4 hPa West 19.3 km/h 37 km/h 88 % 0 mm 9 W/m2
05:27 14.3 °C 12.3 °C 1014.4 hPa West 17.7 km/h 33.8 km/h 88 % 0 mm 11 W/m2
05:32 14.3 °C 12.3 °C 1014.4 hPa WNW 17.7 km/h 33.8 km/h 88 % 0 mm 14 W/m2
05:37 14.3 °C 12.3 °C 1014.4 hPa West 19.3 km/h 33.8 km/h 88 % 0 mm 23 W/m2
05:42 14.3 °C 12.3 °C 1014.4 hPa West 20.9 km/h 33.8 km/h 88 % 0 mm 26 W/m2
05:47 14.3 °C 12.3 °C 1014.4 hPa West 19.3 km/h 30.6 km/h 88 % 0 mm 33 W/m2
05:52 14.3 °C 12.3 °C 1014.8 hPa West 19.3 km/h 37 km/h 88 % 0 mm 26 W/m2
05:57 14.3 °C 12.3 °C 1014.8 hPa West 19.3 km/h 37 km/h 88 % 0 mm 23 W/m2
06:02 14.3 °C 12.3 °C 1014.8 hPa West 17.7 km/h 32.2 km/h 88 % 0 mm 28 W/m2
06:07 14.3 °C 12.3 °C 1014.8 hPa West 16.1 km/h 25.7 km/h 88 % 0 mm 37 W/m2
06:12 14.4 °C 12.4 °C 1014.8 hPa West 12.9 km/h 25.7 km/h 88 % 0 mm 28 W/m2
06:17 14.4 °C 12.4 °C 1015.1 hPa West 11.3 km/h 22.5 km/h 88 % 0 mm 30 W/m2
06:22 14.4 °C 12.4 °C 1015.1 hPa West 11.3 km/h 20.9 km/h 88 % 0 mm 32 W/m2
06:27 14.5 °C 12.6 °C 1015.1 hPa WNW 11.3 km/h 20.9 km/h 88 % 0 mm 39 W/m2
06:32 14.6 °C 12.4 °C 1015.1 hPa WNW 11.3 km/h 20.9 km/h 87 % 0 mm 49 W/m2
06:36 14.6 °C 12.4 °C 1015.5 hPa WNW 12.9 km/h 24.1 km/h 87 % 0 mm 51 W/m2
06:41 14.6 °C 12.4 °C 1015.5 hPa WNW 12.9 km/h 24.1 km/h 87 % 0 mm 58 W/m2
06:46 14.6 °C 12.4 °C 1015.5 hPa WNW 12.9 km/h 24.1 km/h 87 % 0 mm 54 W/m2
06:51 14.7 °C 12.6 °C 1015.5 hPa WNW 11.3 km/h 24.1 km/h 87 % 0 mm 46 W/m2
06:56 14.7 °C 12.6 °C 1015.8 hPa West 9.7 km/h 20.9 km/h 87 % 0 mm 23 W/m2
07:01 14.6 °C 12.4 °C 1015.8 hPa WSW 9.7 km/h 20.9 km/h 87 % 0 mm 23 W/m2
07:06 14.6 °C 12.4 °C 1015.8 hPa WSW 8 km/h 24.1 km/h 87 % 0 mm 35 W/m2
07:11 14.5 °C 12.3 °C 1015.8 hPa West 11.3 km/h 32.2 km/h 87 % 0 mm 40 W/m2
07:16 14.4 °C 12.3 °C 1015.8 hPa West 14.5 km/h 32.2 km/h 87 % 0 mm 44 W/m2
07:21 14.4 °C 12.4 °C 1015.8 hPa West 11.3 km/h 22.5 km/h 88 % 0 mm 47 W/m2
07:26 14.4 °C 12.4 °C 1015.8 hPa West 11.3 km/h 20.9 km/h 88 % 0 mm 56 W/m2
07:31 14.4 °C 12.4 °C 1015.8 hPa West 11.3 km/h 20.9 km/h 88 % 0 mm 67 W/m2
07:36 14.4 °C 12.4 °C 1015.8 hPa WNW 11.3 km/h 20.9 km/h 88 % 0 mm 77 W/m2
07:41 14.4 °C 12.4 °C 1015.8 hPa West 11.3 km/h 19.3 km/h 88 % 0 mm 86 W/m2
07:46 14.4 °C 12.4 °C 1015.8 hPa WNW 12.9 km/h 25.7 km/h 88 % 0 mm 77 W/m2
07:51 14.4 °C 12.3 °C 1015.8 hPa WNW 16.1 km/h 32.2 km/h 87 % 0 mm 118 W/m2
07:57 14.5 °C 12.3 °C 1015.8 hPa WNW 16.1 km/h 32.2 km/h 87 % 0 mm 102 W/m2
08:02 14.6 °C 12.4 °C 1015.8 hPa WNW 16.1 km/h 24.1 km/h 87 % 0 mm 142 W/m2
08:07 14.6 °C 12.3 °C 1015.8 hPa WNW 16.1 km/h 29 km/h 86 % 0 mm 100 W/m2
08:11 14.6 °C 12.4 °C 1015.8 hPa WNW 16.1 km/h 29 km/h 87 % 0 mm 114 W/m2
08:16 14.6 °C 12.4 °C 1016.1 hPa WNW 17.7 km/h 32.2 km/h 87 % 0 mm 148 W/m2
08:21 14.6 °C 12.4 °C 1016.1 hPa WNW 17.7 km/h 32.2 km/h 87 % 0 mm 148 W/m2
08:27 14.7 °C 12.6 °C 1016.1 hPa WNW 16.1 km/h 37 km/h 87 % 0 mm 199 W/m2
08:32 14.8 °C 12.5 °C 1016.1 hPa WNW 19.3 km/h 37 km/h 86 % 0 mm 156 W/m2
08:37 14.9 °C 12.6 °C 1016.1 hPa WNW 19.3 km/h 33.8 km/h 86 % 0 mm 169 W/m2
08:42 14.9 °C 12.6 °C 1016.1 hPa WNW 17.7 km/h 32.2 km/h 86 % 0 mm 158 W/m2
08:47 14.9 °C 12.6 °C 1016.5 hPa West 17.7 km/h 35.4 km/h 86 % 0 mm 132 W/m2
08:52 14.8 °C 12.5 °C 1016.5 hPa WNW 17.7 km/h 35.4 km/h 86 % 0 mm 167 W/m2
08:57 14.9 °C 12.6 °C 1016.8 hPa WNW 12.9 km/h 30.6 km/h 86 % 0 mm 162 W/m2
09:02 15 °C 12.5 °C 1016.8 hPa NW 11.3 km/h 20.9 km/h 85 % 0 mm 167 W/m2
09:07 15.1 °C 12.4 °C 1016.5 hPa WNW 12.9 km/h 22.5 km/h 84 % 0 mm 315 W/m2
09:12 15.3 °C 12.6 °C 1016.8 hPa WNW 12.9 km/h 24.1 km/h 84 % 0 mm 241 W/m2
09:17 15.5 °C 12.6 °C 1016.8 hPa WNW 14.5 km/h 24.1 km/h 83 % 0 mm 218 W/m2
09:22 15.6 °C 12.7 °C 1016.8 hPa WNW 14.5 km/h 24.1 km/h 83 % 0 mm 302 W/m2
09:27 15.8 °C 12.7 °C 1016.8 hPa WNW 16.1 km/h 33.8 km/h 82 % 0 mm 244 W/m2
09:32 16 °C 12.7 °C 1016.8 hPa WNW 19.3 km/h 33.8 km/h 81 % 0 mm 281 W/m2
09:37 16 °C 12.7 °C 1017.2 hPa WNW 17.7 km/h 33.8 km/h 81 % 0 mm 214 W/m2
09:42 15.9 °C 12.7 °C 1017.2 hPa WNW 17.7 km/h 29 km/h 81 % 0 mm 218 W/m2
09:47 15.8 °C 12.6 °C 1017.2 hPa WNW 17.7 km/h 35.4 km/h 81 % 0 mm 207 W/m2
09:52 15.7 °C 12.4 °C 1017.2 hPa WNW 17.7 km/h 35.4 km/h 81 % 0 mm 216 W/m2
09:57 15.7 °C 12.6 °C 1017.2 hPa WNW 16.1 km/h 30.6 km/h 82 % 0 mm 292 W/m2
10:02 15.7 °C 12.6 °C 1017.2 hPa WNW 16.1 km/h 30.6 km/h 82 % 0 mm 413 W/m2
10:07 15.9 °C 12.8 °C 1017.2 hPa WNW 16.1 km/h 33.8 km/h 82 % 0 mm 258 W/m2
10:12 16.1 °C 13 °C 1017.2 hPa WNW 16.1 km/h 33.8 km/h 82 % 0 mm 279 W/m2
10:17 16.1 °C 12.8 °C 1017.5 hPa WNW 14.5 km/h 25.7 km/h 81 % 0 mm 253 W/m2
10:22 16.1 °C 12.8 °C 1017.5 hPa WNW 14.5 km/h 30.6 km/h 81 % 0 mm 406 W/m2
10:27 16.2 °C 12.7 °C 1017.5 hPa WNW 14.5 km/h 30.6 km/h 80 % 0 mm 341 W/m2
10:32 16.3 °C 12.7 °C 1017.5 hPa WNW 16.1 km/h 33.8 km/h 79 % 0 mm 408 W/m2
10:37 16.3 °C 12.7 °C 1017.5 hPa WNW 16.1 km/h 33.8 km/h 79 % 0 mm 369 W/m2
10:42 16.6 °C 12.9 °C 1017.5 hPa WNW 16.1 km/h 30.6 km/h 79 % 0 mm 483 W/m2
10:47 16.8 °C 12.7 °C 1017.5 hPa WNW 19.3 km/h 33.8 km/h 77 % 0 mm 464 W/m2
10:52 16.9 °C 12.7 °C 1017.5 hPa WNW 19.3 km/h 35.4 km/h 76 % 0 mm 422 W/m2
10:54 16.9 °C 12.7 °C 1017.5 hPa WNW 20.9 km/h 35.4 km/h 76 % 0 mm 392 W/m2
10:59 16.9 °C 12.4 °C 1017.5 hPa WNW 19.3 km/h 35.4 km/h 75 % 0 mm 369 W/m2
11:04 16.8 °C 12.7 °C 1017.5 hPa WNW 17.7 km/h 35.4 km/h 77 % 0 mm 313 W/m2
11:09 16.8 °C 12.6 °C 1017.5 hPa WNW 16.1 km/h 30.6 km/h 76 % 0 mm 527 W/m2
11:14 16.8 °C 12.6 °C 1017.5 hPa WNW 19.3 km/h 38.6 km/h 76 % 0 mm 536 W/m2
11:19 16.9 °C 12.8 °C 1017.2 hPa West 19.3 km/h 38.6 km/h 77 % 0 mm 749 W/m2
11:24 17.2 °C 12.9 °C 1017.5 hPa West 16.1 km/h 29 km/h 76 % 0 mm 246 W/m2
11:29 17.2 °C 12.9 °C 1017.5 hPa West 14.5 km/h 24.1 km/h 76 % 0 mm 279 W/m2
11:34 17.3 °C 13 °C 1017.5 hPa WNW 14.5 km/h 25.7 km/h 76 % 0 mm 626 W/m2
11:39 17.4 °C 12.9 °C 1017.5 hPa WNW 14.5 km/h 25.7 km/h 75 % 0 mm 656 W/m2
11:44 17.6 °C 12.9 °C 1017.5 hPa WNW 16.1 km/h 29 km/h 74 % 0 mm 320 W/m2
11:49 17.6 °C 12.9 °C 1017.2 hPa WNW 16.1 km/h 29 km/h 74 % 0 mm 413 W/m2
11:54 17.6 °C 12.9 °C 1017.5 hPa WNW 17.7 km/h 32.2 km/h 74 % 0 mm 457 W/m2
11:59 17.8 °C 12.9 °C 1017.5 hPa WNW 16.1 km/h 32.2 km/h 73 % 0 mm 979 W/m2
12:04 17.9 °C 12.8 °C 1017.5 hPa West 16.1 km/h 30.6 km/h 72 % 0 mm 608 W/m2
12:09 18.1 °C 12.9 °C 1017.5 hPa West 17.7 km/h 37 km/h 72 % 0 mm 548 W/m2
12:14 18.2 °C 12.8 °C 1017.5 hPa West 19.3 km/h 37 km/h 71 % 0 mm 522 W/m2
12:19 18.4 °C 12.8 °C 1017.5 hPa WNW 17.7 km/h 30.6 km/h 70 % 0 mm 403 W/m2
12:24 18.4 °C 13.1 °C 1017.2 hPa WNW 14.5 km/h 24.1 km/h 71 % 0 mm 452 W/m2
12:29 18.5 °C 12.9 °C 1017.5 hPa West 14.5 km/h 29 km/h 70 % 0 mm 1097 W/m2
12:34 18.6 °C 13 °C 1017.5 hPa WNW 14.5 km/h 29 km/h 70 % 0 mm 492 W/m2
12:39 18.8 °C 13 °C 1017.5 hPa WNW 14.5 km/h 25.7 km/h 69 % 0 mm 1111 W/m2
12:44 19 °C 13.2 °C 1017.5 hPa WNW 14.5 km/h 24.1 km/h 69 % 0 mm 1178 W/m2
12:49 19.3 °C 13 °C 1017.5 hPa WNW 12.9 km/h 24.1 km/h 67 % 0 mm 557 W/m2
12:54 19.4 °C 13.1 °C 1017.5 hPa WNW 12.9 km/h 24.1 km/h 67 % 0 mm 487 W/m2
12:59 19.4 °C 13.1 °C 1017.5 hPa WNW 12.9 km/h 25.7 km/h 67 % 0 mm 448 W/m2
13:04 19.3 °C 13 °C 1017.5 hPa West 12.9 km/h 25.7 km/h 67 % 0 mm 564 W/m2
13:09 19.4 °C 12.9 °C 1017.5 hPa WNW 12.9 km/h 25.7 km/h 66 % 0 mm 492 W/m2
13:14 19.4 °C 12.9 °C 1017.5 hPa WNW 14.5 km/h 25.7 km/h 66 % 0 mm 492 W/m2
13:19 19.5 °C 13.2 °C 1017.5 hPa WNW 12.9 km/h 24.1 km/h 67 % 0 mm 422 W/m2
13:25 19.6 °C 13.1 °C 1017.5 hPa WNW 12.9 km/h 25.7 km/h 66 % 0 mm 754 W/m2
13:30 19.6 °C 13.1 °C 1017.2 hPa WNW 14.5 km/h 25.7 km/h 66 % 0 mm 724 W/m2
13:35 19.5 °C 13.2 °C 1017.2 hPa WNW 14.5 km/h 22.5 km/h 67 % 0 mm 731 W/m2
13:40 19.6 °C 13.1 °C 1017.2 hPa WNW 14.5 km/h 24.1 km/h 66 % 0 mm 752 W/m2
13:45 19.4 °C 12.9 °C 1017.5 hPa West 16.1 km/h 24.1 km/h 66 % 0 mm 835 W/m2
13:50 19.6 °C 13.1 °C 1017.5 hPa West 14.5 km/h 24.1 km/h 66 % 0 mm 436 W/m2
13:51 19.6 °C 13.1 °C 1017.5 hPa West 14.5 km/h 24.1 km/h 66 % 0 mm 469 W/m2
13:56 19.5 °C 12.7 °C 1017.5 hPa WNW 12.9 km/h 24.1 km/h 65 % 0 mm 668 W/m2
14:01 19.4 °C 12.7 °C 1017.5 hPa WNW 14.5 km/h 22.5 km/h 65 % 0 mm 657 W/m2
14:06 19.7 °C 13.2 °C 1017.5 hPa WNW 12.9 km/h 22.5 km/h 66 % 0 mm 707 W/m2
14:07 19.7 °C 13.2 °C 1017.5 hPa WNW 12.9 km/h 22.5 km/h 66 % 0 mm 828 W/m2
14:12 20 °C 13.4 °C 1017.5 hPa WNW 12.9 km/h 22.5 km/h 66 % 0 mm 909 W/m2
14:17 20.2 °C 13.2 °C 1017.5 hPa NW 14.5 km/h 24.1 km/h 64 % 0 mm 759 W/m2
14:22 20.1 °C 13.1 °C 1017.2 hPa WNW 14.5 km/h 24.1 km/h 64 % 0 mm 561 W/m2
14:27 20.1 °C 13.3 °C 1017.5 hPa WNW 14.5 km/h 29 km/h 65 % 0 mm 670 W/m2
14:32 20.2 °C 13.4 °C 1017.5 hPa WNW 16.1 km/h 29 km/h 65 % 0 mm 824 W/m2
14:37 20.4 °C 13.1 °C 1017.2 hPa NW 14.5 km/h 25.7 km/h 63 % 0 mm 868 W/m2
14:43 20.5 °C 12.9 °C 1017.5 hPa NW 12.9 km/h 22.5 km/h 62 % 0 mm 979 W/m2
14:48 20.6 °C 13.6 °C 1017.5 hPa NW 12.9 km/h 20.9 km/h 64 % 0 mm 847 W/m2
14:53 20.7 °C 13.2 °C 1017.2 hPa NW 14.5 km/h 24.1 km/h 62 % 0 mm 819 W/m2
14:58 20.7 °C 13.2 °C 1017.5 hPa NW 14.5 km/h 24.1 km/h 62 % 0 mm 566 W/m2
15:03 20.7 °C 13.4 °C 1017.5 hPa NW 12.9 km/h 24.1 km/h 63 % 0 mm 770 W/m2
15:08 20.7 °C 13.2 °C 1017.2 hPa WNW 12.9 km/h 22.5 km/h 62 % 0 mm 853 W/m2
15:13 20.9 °C 13.1 °C 1017.5 hPa WNW 14.5 km/h 24.1 km/h 61 % 0 mm 856 W/m2
15:18 20.5 °C 12.7 °C 1017.5 hPa WNW 14.5 km/h 24.1 km/h 61 % 0 mm 279 W/m2
15:23 20.2 °C 12.9 °C 1017.5 hPa WNW 11.3 km/h 20.9 km/h 63 % 0 mm 367 W/m2
15:28 20.1 °C 13.1 °C 1017.5 hPa WNW 9.7 km/h 20.9 km/h 64 % 0 mm 515 W/m2
15:33 20.1 °C 12.8 °C 1017.5 hPa WNW 11.3 km/h 20.9 km/h 63 % 0 mm 360 W/m2
15:38 20.1 °C 12.8 °C 1017.5 hPa WNW 12.9 km/h 20.9 km/h 63 % 0 mm 387 W/m2
15:43 20 °C 13 °C 1017.2 hPa NW 11.3 km/h 20.9 km/h 64 % 0 mm 381 W/m2
15:48 20 °C 13 °C 1017.2 hPa NW 9.7 km/h 20.9 km/h 64 % 0 mm 390 W/m2
15:53 19.9 °C 13.1 °C 1017.2 hPa WNW 9.7 km/h 20.9 km/h 65 % 0 mm 399 W/m2
15:58 19.9 °C 13.1 °C 1017.2 hPa WNW 9.7 km/h 20.9 km/h 65 % 0 mm 369 W/m2
16:03 19.9 °C 13.1 °C 1016.8 hPa WNW 9.7 km/h 17.7 km/h 65 % 0 mm 345 W/m2
16:08 19.9 °C 12.9 °C 1016.8 hPa WNW 9.7 km/h 17.7 km/h 64 % 0 mm 512 W/m2
16:13 20.1 °C 13.3 °C 1016.8 hPa NW 11.3 km/h 20.9 km/h 65 % 0 mm 643 W/m2
16:18 20.4 °C 13.3 °C 1016.5 hPa WNW 11.3 km/h 20.9 km/h 64 % 0 mm 628 W/m2
16:23 20.6 °C 13.3 °C 1016.8 hPa WNW 11.3 km/h 17.7 km/h 63 % 0 mm 294 W/m2
16:28 20.5 °C 12.9 °C 1016.5 hPa NW 11.3 km/h 20.9 km/h 62 % 0 mm 338 W/m2
16:33 20.3 °C 13 °C 1016.5 hPa WNW 11.3 km/h 20.9 km/h 63 % 0 mm 336 W/m2
16:38 20.2 °C 13.2 °C 1016.8 hPa WNW 9.7 km/h 19.3 km/h 64 % 0 mm 322 W/m2
16:43 20.1 °C 13.1 °C 1016.5 hPa NW 8 km/h 16.1 km/h 64 % 0 mm 585 W/m2
16:48 20.3 °C 13.5 °C 1016.5 hPa WNW 8 km/h 16.1 km/h 65 % 0 mm 448 W/m2
16:53 20.4 °C 13.3 °C 1016.8 hPa NW 9.7 km/h 17.7 km/h 64 % 0 mm 339 W/m2
16:58 20.4 °C 13.3 °C 1016.8 hPa NW 8 km/h 17.7 km/h 64 % 0 mm 272 W/m2
17:03 20.3 °C 13.3 °C 1016.8 hPa WNW 8 km/h 14.5 km/h 64 % 0 mm 367 W/m2
17:08 20.3 °C 13.5 °C 1016.5 hPa WNW 8 km/h 16.1 km/h 65 % 0 mm 308 W/m2
17:13 20.2 °C 13.2 °C 1016.5 hPa WNW 9.7 km/h 16.1 km/h 64 % 0 mm 320 W/m2
17:18 20.1 °C 13.3 °C 1016.8 hPa WNW 8 km/h 14.5 km/h 65 % 0 mm 318 W/m2
17:23 20 °C 13.2 °C 1016.8 hPa West 9.7 km/h 16.1 km/h 65 % 0 mm 570 W/m2
17:26 20.1 °C 13.3 °C 1016.5 hPa West 9.7 km/h 16.1 km/h 65 % 0 mm 543 W/m2
17:31 20.2 °C 13.4 °C 1016.5 hPa WNW 8 km/h 16.1 km/h 65 % 0 mm 287 W/m2
17:36 20.4 °C 13.3 °C 1016.5 hPa WNW 6.4 km/h 12.9 km/h 64 % 0 mm 308 W/m2
17:41 20.4 °C 13.1 °C 1016.1 hPa WNW 8 km/h 16.1 km/h 63 % 0 mm 327 W/m2
17:46 20.4 °C 13.1 °C 1016.1 hPa NW 6.4 km/h 16.1 km/h 63 % 0 mm 383 W/m2
17:51 20.4 °C 13.1 °C 1016.1 hPa NW 8 km/h 17.7 km/h 63 % 0 mm 339 W/m2
17:56 20.4 °C 13.1 °C 1016.1 hPa WNW 8 km/h 17.7 km/h 63 % 0 mm 424 W/m2
18:01 20.5 °C 13.2 °C 1016.1 hPa WNW 8 km/h 14.5 km/h 63 % 0 mm 334 W/m2
18:06 20.4 °C 12.9 °C 1016.1 hPa NW 8 km/h 16.1 km/h 62 % 0 mm 172 W/m2
18:11 20.4 °C 13.1 °C 1016.1 hPa NW 8 km/h 16.1 km/h 63 % 0 mm 167 W/m2
18:16 20.3 °C 13.3 °C 1016.1 hPa WNW 6.4 km/h 12.9 km/h 64 % 0 mm 148 W/m2
18:21 20.2 °C 12.9 °C 1016.1 hPa WNW 8 km/h 17.7 km/h 63 % 0 mm 269 W/m2
18:22 20.2 °C 13.2 °C 1016.1 hPa WNW 8 km/h 17.7 km/h 64 % 0 mm 241 W/m2
18:27 20.2 °C 13.4 °C 1016.1 hPa NW 6.4 km/h 17.7 km/h 65 % 0 mm 267 W/m2
18:32 20.2 °C 13.2 °C 1016.1 hPa NW 4.8 km/h 11.3 km/h 64 % 0 mm 192 W/m2
18:37 20.3 °C 13.5 °C 1016.1 hPa NW 6.4 km/h 12.9 km/h 65 % 0 mm 165 W/m2
18:42 20.2 °C 13.4 °C 1015.8 hPa NW 4.8 km/h 12.9 km/h 65 % 0 mm 202 W/m2
18:47 20.1 °C 13.6 °C 1016.1 hPa NW 6.4 km/h 14.5 km/h 66 % 0 mm 192 W/m2
18:52 19.9 °C 13.3 °C 1016.1 hPa NW 8 km/h 14.5 km/h 66 % 0 mm 141 W/m2
18:57 19.7 °C 13.2 °C 1016.1 hPa NW 6.4 km/h 14.5 km/h 66 % 0 mm 123 W/m2
19:02 19.6 °C 13.1 °C 1016.1 hPa NW 6.4 km/h 14.5 km/h 66 % 0 mm 118 W/m2
19:07 19.4 °C 12.9 °C 1016.1 hPa NW 3.2 km/h 12.9 km/h 66 % 0 mm 116 W/m2
19:12 19.3 °C 13 °C 1016.1 hPa NNW 1.6 km/h 8 km/h 67 % 0 mm 121 W/m2
19:17 19.2 °C 12.9 °C 1016.1 hPa NNW 3.2 km/h 11.3 km/h 67 % 0 mm 130 W/m2
19:22 19.2 °C 13.2 °C 1016.1 hPa NNW 4.8 km/h 11.3 km/h 68 % 0 mm 148 W/m2
19:27 19.2 °C 13.4 °C 1016.1 hPa NNW 1.6 km/h 8 km/h 69 % 0 mm 128 W/m2
19:32 19.2 °C 13.2 °C 1016.1 hPa NNW 3.2 km/h 9.7 km/h 68 % 0 mm 141 W/m2
19:38 19.1 °C 13.1 °C 1016.1 hPa NNW 1.6 km/h 9.7 km/h 68 % 0 mm 127 W/m2
19:43 19.1 °C 12.8 °C 1016.1 hPa Calm   8 km/h 67 % 0 mm 121 W/m2
19:48 19.1 °C 13.1 °C 1016.1 hPa Calm   8 km/h 68 % 0 mm 100 W/m2
19:53 18.9 °C 12.9 °C 1016.1 hPa Calm   6.4 km/h 68 % 0 mm 83 W/m2
19:58 18.8 °C 12.8 °C 1016.1 hPa Calm   3.2 km/h 68 % 0 mm 63 W/m2
20:03 18.7 °C 12.9 °C 1016.1 hPa Calm   1.6 km/h 69 % 0 mm 51 W/m2
20:08 18.6 °C 13 °C 1016.1 hPa Calm   3.2 km/h 70 % 0 mm 46 W/m2
20:13 18.6 °C 13.2 °C 1016.1 hPa Calm   3.2 km/h 71 % 0 mm 44 W/m2
20:18 18.6 °C 13.4 °C 1016.5 hPa Calm   3.2 km/h 72 % 0 mm 37 W/m2
20:23 18.6 °C 13.2 °C 1016.5 hPa NNW 1.6 km/h 3.2 km/h 71 % 0 mm 28 W/m2
20:28 18.5 °C 13.2 °C 1016.5 hPa NNW 1.6 km/h 3.2 km/h 71 % 0 mm 25 W/m2
20:33 18.4 °C 13.1 °C 1016.5 hPa NNW 1.6 km/h 3.2 km/h 71 % 0 mm 19 W/m2
20:38 18.3 °C 12.9 °C 1016.5 hPa Calm   3.2 km/h 71 % 0 mm 14 W/m2
20:43 18.3 °C 12.9 °C 1016.5 hPa NNW 1.6 km/h 4.8 km/h 71 % 0 mm 12 W/m2
20:48 18.2 °C 13.1 °C 1016.5 hPa NNW 1.6 km/h 4.8 km/h 72 % 0 mm 11 W/m2
20:53 18 °C 13.1 °C 1016.5 hPa NNW 1.6 km/h 4.8 km/h 73 % 0 mm 9 W/m2
20:58 17.9 °C 13.2 °C 1016.5 hPa Calm   1.6 km/h 74 % 0 mm 7 W/m2
21:03 17.8 °C 13.1 °C 1016.5 hPa Calm     74 % 0 mm 5 W/m2
21:08 17.7 °C 13.2 °C 1016.5 hPa Calm   1.6 km/h 75 % 0 mm 0 W/m2
21:13 17.6 °C 13.1 °C 1016.5 hPa Calm   1.6 km/h 75 % 0 mm 0 W/m2
21:18 17.5 °C 13.2 °C 1016.5 hPa Calm   1.6 km/h 76 % 0 mm 0 W/m2
21:23 17.4 °C 13.1 °C 1016.8 hPa Calm   1.6 km/h 76 % 0 mm 0 W/m2
21:28 17.4 °C 13.3 °C 1016.8 hPa Calm   3.2 km/h 77 % 0 mm 0 W/m2
21:33 17.3 °C 13.2 °C 1016.8 hPa Calm   3.2 km/h 77 % 0 mm 0 W/m2
21:38 17.3 °C 13.2 °C 1016.8 hPa Calm   1.6 km/h 77 % 0 mm 0 W/m2
21:43 17.2 °C 13.1 °C 1016.8 hPa Calm     77 % 0 mm 0 W/m2
21:48 17.1 °C 13.2 °C 1016.8 hPa Calm     78 % 0 mm 0 W/m2
21:53 17.1 °C 13.2 °C 1016.8 hPa Calm     78 % 0 mm 0 W/m2
21:58 17.1 °C 13.4 °C 1016.8 hPa Calm     79 % 0 mm 0 W/m2
22:03 17 °C 13.3 °C 1017.2 hPa Calm     79 % 0 mm 0 W/m2
22:08 16.9 °C 13.1 °C 1017.2 hPa NE 1.6 km/h 11.3 km/h 78 % 0 mm 0 W/m2
22:13 16.8 °C 12.9 °C 1016.8 hPa NE 3.2 km/h 12.9 km/h 78 % 0 mm 0 W/m2
22:18 16.9 °C 13.2 °C 1016.8 hPa ENE 4.8 km/h 14.5 km/h 79 % 0 mm 0 W/m2
22:23 16.9 °C 13.4 °C 1016.8 hPa ENE 4.8 km/h 14.5 km/h 80 % 0 mm 0 W/m2
22:26 16.9 °C 13.6 °C 1016.8 hPa ENE 4.8 km/h 11.3 km/h 81 % 0 mm 0 W/m2
22:31 16.8 °C 13.5 °C 1016.8 hPa East 4.8 km/h 11.3 km/h 81 % 0 mm 0 W/m2
22:36 16.8 °C 13.7 °C 1016.8 hPa East 4.8 km/h 12.9 km/h 82 % 0 mm 0 W/m2
22:41 16.6 °C 13.5 °C 1016.8 hPa ENE 6.4 km/h 12.9 km/h 82 % 0 mm 0 W/m2
22:46 16.5 °C 13.4 °C 1016.5 hPa ENE 6.4 km/h 12.9 km/h 82 % 0 mm 0 W/m2
22:51 16.4 °C 13.3 °C 1016.5 hPa ENE 6.4 km/h 12.9 km/h 82 % 0 mm 0 W/m2
22:56 16.3 °C 13.4 °C 1016.5 hPa ENE 4.8 km/h 12.9 km/h 83 % 0 mm 0 W/m2
23:01 16.2 °C 13.3 °C 1016.5 hPa ENE 6.4 km/h 14.5 km/h 83 % 0 mm 0 W/m2
23:06 16.1 °C 13.2 °C 1016.5 hPa ENE 8 km/h 14.5 km/h 83 % 0 mm 0 W/m2
23:11 16.1 °C 13.2 °C 1016.5 hPa ENE 6.4 km/h 14.5 km/h 83 % 0 mm 0 W/m2
23:17 16 °C 13.3 °C 1016.5 hPa ENE 6.4 km/h 14.5 km/h 84 % 0 mm 0 W/m2
23:22 15.9 °C 13.2 °C 1016.5 hPa ENE 8 km/h 14.5 km/h 84 % 0 mm 0 W/m2
23:27 15.8 °C 13.1 °C 1016.5 hPa ENE 6.4 km/h 14.5 km/h 84 % 0 mm 0 W/m2
23:32 15.8 °C 13.3 °C 1016.5 hPa ENE 6.4 km/h 12.9 km/h 85 % 0 mm 0 W/m2
23:37 15.7 °C 13.2 °C 1016.5 hPa ENE 6.4 km/h 11.3 km/h 85 % 0 mm 0 W/m2
23:42 15.6 °C 13.3 °C 1016.5 hPa ENE 6.4 km/h 12.9 km/h 86 % 0 mm 0 W/m2
23:47 15.6 °C 13.3 °C 1016.5 hPa ENE 6.4 km/h 14.5 km/h 86 % 0 mm 0 W/m2
23:52 15.4 °C 13.2 °C 1016.5 hPa ENE 8 km/h 16.1 km/h 87 % 0 mm 0 W/m2
23:57 15.4 °C 13.2 °C 1016.5 hPa ENE 8 km/h 16.1 km/h 87 % 0 mm 0 W/m2
Delerius-Weather
Compliments of Weather Underground - 2.25 mb

Data updates at regular intervals.